Time,TemperatureF,DewpointF,PressureIn,WindDirection,WindDirectionDegrees,WindSpeedMPH,WindSpeedGustMPH,Humidity,HourlyPrecipIn,Conditions,Clouds,dailyrainin,SoftwareType,DateUTC
2013-03-19 00:01:00,39.0,35.0,30.22,ESE,115,1.0,5.0,87,0.00,,,0.00,,2013-03-19 07:01:00,
2013-03-19 00:11:00,39.0,35.0,30.22,ESE,115,1.0,5.0,87,0.00,,,0.00,,2013-03-19 07:11:00,
2013-03-19 00:21:00,39.0,36.0,30.21,ESE,115,0.0,3.0,88,0.00,,,0.00,,2013-03-19 07:21:00,
2013-03-19 00:32:00,39.0,36.0,30.21,ESE,123,2.0,4.0,89,0.00,,,0.00,,2013-03-19 07:32:00,
2013-03-19 00:42:00,39.0,36.0,30.21,ESE,123,2.0,4.0,89,0.00,,,0.00,,2013-03-19 07:42:00,
2013-03-19 00:52:00,38.0,35.0,30.21,ESE,109,3.0,6.0,90,0.00,,,0.00,,2013-03-19 07:52:00,
2013-03-19 01:02:00,38.0,35.0,30.20,ESE,113,3.0,6.0,90,0.00,,,0.00,,2013-03-19 08:02:00,
2013-03-19 01:12:00,38.0,35.0,30.20,ESE,113,3.0,6.0,90,0.00,,,0.00,,2013-03-19 08:12:00,
2013-03-19 01:21:00,37.0,35.0,30.20,ESE,109,2.0,4.0,91,0.00,,,0.00,,2013-03-19 08:21:00,
2013-03-19 01:31:00,37.0,35.0,30.19,SE,131,3.0,5.0,91,0.00,,,0.00,,2013-03-19 08:31:00,
2013-03-19 01:42:00,37.0,35.0,30.19,SE,131,3.0,5.0,91,0.00,,,0.00,,2013-03-19 08:42:00,
2013-03-19 01:52:00,37.0,35.0,30.18,ESE,110,4.0,6.0,91,0.00,,,0.00,,2013-03-19 08:52:00,
2013-03-19 02:02:00,37.0,35.0,30.18,ESE,115,3.0,5.0,91,0.00,,,0.00,,2013-03-19 09:02:00,
2013-03-19 02:12:00,37.0,35.0,30.18,ESE,115,3.0,5.0,91,0.00,,,0.00,,2013-03-19 09:12:00,
2013-03-19 02:22:00,37.0,35.0,30.17,ESE,115,3.0,5.0,91,0.00,,,0.00,,2013-03-19 09:22:00,
2013-03-19 02:32:00,37.0,35.0,30.17,ESE,112,3.0,5.0,91,0.00,,,0.00,,2013-03-19 09:32:00,
2013-03-19 02:42:00,37.0,35.0,30.17,ESE,112,3.0,5.0,91,0.00,,,0.00,,2013-03-19 09:42:00,
2013-03-19 02:53:00,37.0,34.0,30.17,ESE,112,1.0,4.0,90,0.00,,,0.00,,2013-03-19 09:53:00,
2013-03-19 03:03:00,37.0,34.0,30.17,ESE,112,1.0,2.0,90,0.00,,,0.00,,2013-03-19 10:03:00,
2013-03-19 03:12:00,37.0,34.0,30.17,ESE,112,1.0,2.0,90,0.00,,,0.00,,2013-03-19 10:12:00,
2013-03-19 03:22:00,37.0,34.0,30.16,ESE,112,1.0,3.0,90,0.00,,,0.00,,2013-03-19 10:22:00,
2013-03-19 03:32:00,37.0,34.0,30.15,ESE,112,0.0,3.0,90,0.00,,,0.00,,2013-03-19 10:32:00,
2013-03-19 03:42:00,37.0,34.0,30.15,ESE,112,0.0,3.0,90,0.00,,,0.00,,2013-03-19 10:42:00,
2013-03-19 03:53:00,36.0,33.0,30.15,ESE,112,1.0,3.0,90,0.00,,,0.00,,2013-03-19 10:53:00,
2013-03-19 04:02:00,36.0,33.0,30.14,ESE,112,2.0,5.0,90,0.00,,,0.00,,2013-03-19 11:02:00,
2013-03-19 04:11:00,36.0,33.0,30.14,ESE,112,2.0,5.0,90,0.00,,,0.00,,2013-03-19 11:11:00,
2013-03-19 04:22:00,36.0,34.0,30.13,ESE,113,3.0,6.0,91,0.00,,,0.00,,2013-03-19 11:22:00,
2013-03-19 04:32:00,36.0,34.0,30.13,ESE,115,3.0,6.0,91,0.00,,,0.00,,2013-03-19 11:32:00,
2013-03-19 04:42:00,36.0,34.0,30.13,ESE,115,3.0,6.0,91,0.00,,,0.00,,2013-03-19 11:42:00,
2013-03-19 04:52:00,36.0,34.0,30.12,ESE,114,3.0,7.0,92,0.00,,,0.00,,2013-03-19 11:52:00,
2013-03-19 05:02:00,36.0,34.0,30.11,ESE,117,3.0,8.0,92,0.00,,,0.00,,2013-03-19 12:02:00,
2013-03-19 05:12:00,36.0,34.0,30.11,ESE,117,3.0,8.0,92,0.00,,,0.00,,2013-03-19 12:12:00,
2013-03-19 05:22:00,36.0,34.0,30.11,ESE,115,2.0,9.0,92,0.00,,,0.00,,2013-03-19 12:22:00,
2013-03-19 05:32:00,36.0,34.0,30.10,ESE,120,6.0,9.0,92,0.00,,,0.00,,2013-03-19 12:32:00,
2013-03-19 05:42:00,36.0,34.0,30.10,ESE,120,6.0,9.0,92,0.00,,,0.00,,2013-03-19 12:42:00,
2013-03-19 05:52:00,36.0,34.0,30.10,ESE,115,4.0,6.0,91,0.00,,,0.00,,2013-03-19 12:52:00,
2013-03-19 06:02:00,36.0,34.0,30.09,ESE,111,1.0,4.0,91,0.00,,,0.00,,2013-03-19 13:02:00,
2013-03-19 06:11:00,36.0,34.0,30.09,ESE,111,1.0,4.0,91,0.00,,,0.00,,2013-03-19 13:11:00,
2013-03-19 06:22:00,36.0,33.0,30.08,ESE,102,2.0,4.0,90,0.00,,,0.00,,2013-03-19 13:22:00,
2013-03-19 06:32:00,36.0,33.0,30.07,ENE,59,2.0,5.0,89,0.00,,,0.00,,2013-03-19 13:32:00,
2013-03-19 06:42:00,36.0,33.0,30.07,ENE,59,2.0,5.0,89,0.00,,,0.00,,2013-03-19 13:42:00,
2013-03-19 06:52:00,37.0,34.0,30.07,ENE,64,0.0,3.0,87,0.00,,,0.00,,2013-03-19 13:52:00,
2013-03-19 07:01:00,37.0,34.0,30.06,ENE,64,0.0,1.0,87,0.00,,,0.00,,2013-03-19 14:01:00,
2013-03-19 07:11:00,37.0,34.0,30.06,ENE,64,0.0,1.0,87,0.00,,,0.00,,2013-03-19 14:11:00,
2013-03-19 07:22:00,37.0,34.0,30.06,ENE,64,1.0,2.0,87,0.00,,,0.00,,2013-03-19 14:22:00,
2013-03-19 07:31:00,37.0,34.0,30.06,ENE,64,0.0,2.0,88,0.00,,,0.00,,2013-03-19 14:31:00,
2013-03-19 07:41:00,37.0,34.0,30.06,ENE,64,0.0,2.0,88,0.00,,,0.00,,2013-03-19 14:41:00,
2013-03-19 07:52:00,37.0,33.0,30.06,ENE,64,0.0,2.0,86,0.00,,,0.00,,2013-03-19 14:52:00,
2013-03-19 08:01:00,37.0,32.0,30.06,ENE,64,1.0,2.0,83,0.00,,,0.00,,2013-03-19 15:01:00,
2013-03-19 08:12:00,37.0,32.0,30.06,ENE,64,1.0,2.0,83,0.00,,,0.00,,2013-03-19 15:12:00,
2013-03-19 08:22:00,38.0,33.0,30.05,ENE,64,1.0,2.0,81,0.00,,,0.00,,2013-03-19 15:22:00,
2013-03-19 08:33:00,38.0,33.0,30.05,ENE,65,0.0,2.0,83,0.00,,,0.00,,2013-03-19 15:33:00,
2013-03-19 08:43:00,38.0,33.0,30.05,ENE,65,0.0,2.0,83,0.00,,,0.00,,2013-03-19 15:43:00,
2013-03-19 08:53:00,39.0,34.0,30.04,ENE,65,0.0,2.0,82,0.00,,,0.00,,2013-03-19 15:53:00,
2013-03-19 09:03:00,39.0,33.0,30.04,ENE,65,0.0,2.0,79,0.00,,,0.00,,2013-03-19 16:03:00,
2013-03-19 09:12:00,39.0,33.0,30.04,ENE,65,0.0,2.0,79,0.00,,,0.00,,2013-03-19 16:12:00,
2013-03-19 09:23:00,39.0,34.0,30.04,NE,41,0.0,3.0,82,0.00,,,0.00,,2013-03-19 16:23:00,
2013-03-19 09:33:00,39.0,34.0,30.04,NE,41,0.0,2.0,82,0.00,,,0.00,,2013-03-19 16:33:00,
2013-03-19 09:43:00,39.0,34.0,30.04,NE,41,0.0,2.0,82,0.00,,,0.00,,2013-03-19 16:43:00,
2013-03-19 09:54:00,41.0,36.0,30.03,NE,41,1.0,2.0,82,0.00,,,0.00,,2013-03-19 16:54:00,
2013-03-19 10:02:00,42.0,35.0,30.03,NE,41,0.0,2.0,76,0.00,,,0.00,,2013-03-19 17:02:00,
2013-03-19 10:13:00,43.0,36.0,30.03,North,5,0.0,3.0,77,0.00,,,0.00,,2013-03-19 17:13:00,
2013-03-19 10:23:00,43.0,36.0,30.03,North,5,0.0,3.0,77,0.00,,,0.00,,2013-03-19 17:23:00,
2013-03-19 10:34:00,43.0,36.0,30.03,NNW,327,1.0,4.0,77,0.00,,,0.00,,2013-03-19 17:34:00,
2013-03-19 10:43:00,43.0,36.0,30.03,NNW,327,1.0,4.0,77,0.00,,,0.00,,2013-03-19 17:43:00,
2013-03-19 10:53:00,44.0,36.0,30.03,WNW,296,2.0,5.0,74,0.00,,,0.00,,2013-03-19 17:53:00,
2013-03-19 11:02:00,45.0,36.0,30.02,NW,305,2.0,4.0,71,0.00,,,0.00,,2013-03-19 18:02:00,
2013-03-19 11:13:00,45.0,36.0,30.02,NW,305,2.0,4.0,71,0.00,,,0.00,,2013-03-19 18:13:00,
2013-03-19 11:22:00,46.0,37.0,30.01,NW,305,1.0,4.0,70,0.00,,,0.00,,2013-03-19 18:22:00,
2013-03-19 11:33:00,47.0,36.0,30.00,NW,305,2.0,3.0,66,0.00,,,0.00,,2013-03-19 18:33:00,
2013-03-19 11:42:00,47.0,36.0,30.00,NW,305,2.0,3.0,66,0.00,,,0.00,,2013-03-19 18:42:00,
2013-03-19 11:53:00,48.0,35.0,30.00,NW,305,1.0,4.0,61,0.00,,,0.00,,2013-03-19 18:53:00,
2013-03-19 12:02:00,49.0,34.0,30.00,NW,305,0.0,3.0,55,0.00,,,0.00,,2013-03-19 19:02:00,
2013-03-19 12:12:00,49.0,34.0,30.00,NW,305,0.0,3.0,55,0.00,,,0.00,,2013-03-19 19:12:00,
2013-03-19 12:21:00,51.0,35.0,29.99,NW,305,2.0,3.0,55,0.00,,,0.00,,2013-03-19 19:21:00,
2013-03-19 12:32:00,52.0,37.0,29.98,WNW,290,1.0,4.0,57,0.00,,,0.00,,2013-03-19 19:32:00,
2013-03-19 12:42:00,52.0,37.0,29.98,WNW,290,1.0,4.0,57,0.00,,,0.00,,2013-03-19 19:42:00,
2013-03-19 12:53:00,52.0,36.0,29.97,WNW,290,1.0,4.0,55,0.00,,,0.00,,2013-03-19 19:53:00,
2013-03-19 13:02:00,53.0,36.0,29.96,WNW,290,0.0,4.0,53,0.00,,,0.00,,2013-03-19 20:02:00,
2013-03-19 13:11:00,55.0,30.0,29.95,ESE,119,4.0,10.0,38,0.00,,,0.00,,2013-03-19 20:11:00,
2013-03-19 13:22:00,55.0,30.0,29.95,ESE,119,4.0,10.0,38,0.00,,,0.00,,2013-03-19 20:22:00,
2013-03-19 13:32:00,56.0,29.0,29.94,ESE,120,4.0,8.0,36,0.00,,,0.00,,2013-03-19 20:32:00,
2013-03-19 13:42:00,56.0,29.0,29.94,ESE,120,4.0,8.0,36,0.00,,,0.00,,2013-03-19 20:42:00,
2013-03-19 13:52:00,56.0,29.0,29.93,ESE,113,4.0,5.0,35,0.00,,,0.00,,2013-03-19 20:52:00,
2013-03-19 14:01:00,56.0,29.0,29.92,ESE,103,4.0,7.0,36,0.00,,,0.00,,2013-03-19 21:01:00,
2013-03-19 14:11:00,56.0,29.0,29.92,ESE,103,4.0,7.0,36,0.00,,,0.00,,2013-03-19 21:11:00,
2013-03-19 14:22:00,56.0,29.0,29.92,ESE,121,1.0,11.0,36,0.00,,,0.00,,2013-03-19 21:22:00,
2013-03-19 14:32:00,56.0,30.0,29.91,ESE,115,1.0,6.0,37,0.00,,,0.00,,2013-03-19 21:32:00,
2013-03-19 14:42:00,56.0,30.0,29.91,ESE,115,1.0,6.0,37,0.00,,,0.00,,2013-03-19 21:42:00,
2013-03-19 14:53:00,58.0,31.0,29.91,WSW,244,6.0,12.0,36,0.00,,,0.00,,2013-03-19 21:53:00,
2013-03-19 15:02:00,56.0,31.0,29.91,South,186,3.0,13.0,38,0.00,,,0.00,,2013-03-19 22:02:00,
2013-03-19 15:12:00,56.0,31.0,29.91,South,186,3.0,13.0,38,0.00,,,0.00,,2013-03-19 22:12:00,
2013-03-19 15:22:00,55.0,32.0,29.91,SW,216,5.0,15.0,42,0.00,,,0.00,,2013-03-19 22:22:00,
2013-03-19 15:32:00,54.0,34.0,29.91,SSE,160,3.0,6.0,46,0.00,,,0.00,,2013-03-19 22:32:00,
2013-03-19 15:42:00,53.0,36.0,29.90,ESE,120,3.0,11.0,52,0.00,,,0.00,,2013-03-19 22:42:00,
2013-03-19 15:53:00,53.0,36.0,29.90,ESE,120,3.0,11.0,52,0.00,,,0.00,,2013-03-19 22:53:00,
2013-03-19 16:02:00,53.0,36.0,29.90,SE,145,9.0,21.0,53,0.00,,,0.00,,2013-03-19 23:02:00,
2013-03-19 16:11:00,53.0,36.0,29.90,SE,145,9.0,21.0,53,0.00,,,0.00,,2013-03-19 23:11:00,
2013-03-19 16:21:00,52.0,37.0,29.89,SE,146,3.0,16.0,56,0.00,,,0.00,,2013-03-19 23:21:00,
2013-03-19 16:32:00,51.0,36.0,29.88,East,101,4.0,14.0,57,0.00,,,0.00,,2013-03-19 23:32:00,
2013-03-19 16:42:00,51.0,36.0,29.88,East,101,4.0,14.0,57,0.00,,,0.00,,2013-03-19 23:42:00,
2013-03-19 16:52:00,51.0,37.0,29.88,East,81,4.0,12.0,59,0.00,,,0.00,,2013-03-19 23:52:00,
2013-03-19 17:02:00,51.0,37.0,29.88,SSE,148,7.0,19.0,59,0.00,,,0.00,,2013-03-20 00:02:00,
2013-03-19 17:12:00,51.0,37.0,29.88,SSE,148,7.0,19.0,59,0.00,,,0.00,,2013-03-20 00:12:00,
2013-03-19 17:22:00,50.0,38.0,29.86,East,98,7.0,15.0,62,0.00,,,0.00,,2013-03-20 00:22:00,
2013-03-19 17:32:00,49.0,39.0,29.86,SE,127,7.0,19.0,67,0.01,,,0.01,,2013-03-20 00:32:00,
2013-03-19 17:42:00,49.0,39.0,29.86,SE,127,7.0,19.0,67,0.01,,,0.01,,2013-03-20 00:42:00,
2013-03-19 17:52:00,48.0,39.0,29.86,SE,139,4.0,12.0,72,0.02,,,0.02,,2013-03-20 00:52:00,
2013-03-19 18:01:00,47.0,39.0,29.85,ESE,104,3.0,11.0,75,0.02,,,0.02,,2013-03-20 01:01:00,
2013-03-19 18:11:00,47.0,39.0,29.85,ESE,104,3.0,11.0,75,0.02,,,0.02,,2013-03-20 01:11:00,
2013-03-19 18:22:00,46.0,40.0,29.84,ESE,120,4.0,9.0,79,0.04,,,0.04,,2013-03-20 01:22:00,
2013-03-19 18:32:00,45.0,40.0,29.83,ESE,111,2.0,7.0,82,0.04,,,0.05,,2013-03-20 01:32:00,
2013-03-19 18:42:00,45.0,40.0,29.83,ESE,111,2.0,7.0,82,0.04,,,0.05,,2013-03-20 01:42:00,
2013-03-19 18:52:00,45.0,41.0,29.82,ENE,73,0.0,4.0,85,0.04,,,0.06,,2013-03-20 01:52:00,
2013-03-19 19:02:00,45.0,41.0,29.81,ENE,65,1.0,5.0,86,0.04,,,0.06,,2013-03-20 02:02:00,
2013-03-19 19:11:00,45.0,41.0,29.81,ENE,65,1.0,5.0,86,0.04,,,0.06,,2013-03-20 02:11:00,
2013-03-19 19:21:00,44.0,40.0,29.79,ESE,102,2.0,11.0,87,0.03,,,0.07,,2013-03-20 02:21:00,
2013-03-19 19:32:00,44.0,41.0,29.78,East,86,2.0,5.0,88,0.03,,,0.08,,2013-03-20 02:32:00,
2013-03-19 19:42:00,44.0,41.0,29.78,East,86,2.0,5.0,88,0.03,,,0.08,,2013-03-20 02:42:00,
2013-03-19 19:52:00,44.0,41.0,29.77,ESE,102,4.0,8.0,89,0.04,,,0.10,,2013-03-20 02:52:00,
2013-03-19 20:01:00,43.0,40.0,29.75,ENE,75,3.0,7.0,90,0.04,,,0.10,,2013-03-20 03:01:00,
2013-03-19 20:11:00,43.0,40.0,29.74,ESE,105,4.0,12.0,90,0.03,,,0.10,,2013-03-20 03:11:00,
2013-03-19 20:22:00,43.0,40.0,29.74,ESE,105,4.0,12.0,90,0.03,,,0.10,,2013-03-20 03:22:00,
2013-03-19 20:32:00,43.0,41.0,29.74,ESE,114,5.0,9.0,91,0.04,,,0.12,,2013-03-20 03:32:00,
2013-03-19 20:42:00,43.0,41.0,29.74,ESE,114,5.0,9.0,91,0.04,,,0.12,,2013-03-20 03:42:00,
2013-03-19 20:53:00,43.0,41.0,29.72,ESE,105,3.0,8.0,91,0.04,,,0.14,,2013-03-20 03:53:00,
2013-03-19 21:02:00,43.0,41.0,29.71,ESE,114,3.0,9.0,91,0.08,,,0.18,,2013-03-20 04:02:00,
2013-03-19 21:12:00,43.0,41.0,29.71,ESE,114,3.0,9.0,91,0.08,,,0.18,,2013-03-20 04:12:00,
2013-03-19 21:22:00,43.0,41.0,29.69,ESE,115,5.0,11.0,92,0.09,,,0.19,,2013-03-20 04:22:00,
2013-03-19 21:32:00,43.0,41.0,29.68,East,86,2.0,10.0,92,0.08,,,0.20,,2013-03-20 04:32:00,
2013-03-19 21:42:00,43.0,41.0,29.68,East,86,2.0,10.0,92,0.08,,,0.20,,2013-03-20 04:42:00,
2013-03-19 21:52:00,43.0,41.0,29.67,SE,125,5.0,9.0,92,0.06,,,0.20,,2013-03-20 04:52:00,
2013-03-19 22:02:00,43.0,41.0,29.66,NE,34,3.0,9.0,92,0.03,,,0.21,,2013-03-20 05:02:00,
2013-03-19 22:12:00,43.0,41.0,29.64,ESE,119,4.0,9.0,91,0.02,,,0.21,,2013-03-20 05:12:00,
2013-03-19 22:22:00,43.0,41.0,29.64,ESE,119,4.0,9.0,91,0.02,,,0.21,,2013-03-20 05:22:00,
2013-03-19 22:32:00,43.0,41.0,29.63,SE,130,1.0,9.0,91,0.01,,,0.21,,2013-03-20 05:32:00,
2013-03-19 22:42:00,43.0,41.0,29.63,SE,130,1.0,9.0,91,0.01,,,0.21,,2013-03-20 05:42:00,
2013-03-19 22:52:00,43.0,41.0,29.63,ESE,115,3.0,6.0,91,0.02,,,0.22,,2013-03-20 05:52:00,
2013-03-19 23:02:00,43.0,41.0,29.62,ESE,113,0.0,4.0,91,0.02,,,0.23,,2013-03-20 06:02:00,
2013-03-19 23:12:00,43.0,41.0,29.62,ESE,113,0.0,4.0,91,0.02,,,0.23,,2013-03-20 06:12:00,
2013-03-19 23:21:00,43.0,41.0,29.61,ESE,113,0.0,1.0,91,0.02,,,0.23,,2013-03-20 06:21:00,
2013-03-19 23:31:00,43.0,41.0,29.60,ESE,113,0.0,2.0,92,0.03,,,0.24,,2013-03-20 06:31:00,
2013-03-19 23:42:00,43.0,41.0,29.60,ESE,113,0.0,2.0,92,0.03,,,0.24,,2013-03-20 06:42:00,
2013-03-19 23:52:00,43.0,41.0,29.60,ESE,113,0.0,2.0,92,0.04,,,0.26,,2013-03-20 06:52:00,